Ana Sayfa
METAR-TAF:

METAR-TAF

Havaalanları :

Harry Clever Field

New Philadelphia, Ohio, Amerika Birleşik Devletleri

Enlem: 40-28-19N, Boylam: 081-25-25W, yükseklik: 272 m

Güncel hava durumu gözlemi

Rapor saat 22:53 UTC de 1 saat ve 2 dakika önce yapıldı.
Sakin rüzgar
Sıcaklık 11°C
Nem 76%
Basınç 1017 hPa
Görüş mesafesi: 16.1 km
5000 ft yükseklikte az bulutlu
7000 ft yükseklikte çok bulutlu

METAR: KPHD 232253Z AUTO 00000KT 10SM FEW050 OVC070 11/07 A3003 RMK AO2 SLP170 T01110067

Saat: 19:55 (23:55 UTC)


TAF: eksik

4.000'den fazla havaalanı için hava durumu gözlemleri ve tahminleri (METAR ve TAF raporları).

Kullanılabilir istasyonlar harita üzerinde sarı ve kırmızı noktalarla gösterilir.

İstasyonun adını görmek için fareyi noktanın üzerinde gezdirin.

Sonrasında hava gözlem ve tahminlerini görmek için tıklayın.

Haritayı değiştirmek için: yaklaştırmak için siyah artı işaretli yeşil düğmeye ve uzaklaştırmak için de eksi işaretli düğmeye hızla tıklayın; bitişik haritalar için yeşil okları kullanın.


METAR-TAF: